Time;durP1;ratioP1;P1;durP2;ratioP2;P2;SDS_P1;SDS_P2;PMS_P1;PMS_P2;Temp;Humidity;BMP_temperature;BMP_pressure;BME280_temperature;BME280_humidity;BME280_pressure;Samples;Min_cycle;Max_cycle;Signal;HPM_P1;HPM_P2
2022/01/22 00:00:02;;;;;;;38.35;3.50;;;;;;;;;;5144738;27;20276;-61
2022/01/22 00:02:28;;;;;;;24.85;2.47;;;;;;;;;;5144480;27;20134;-61
2022/01/22 00:04:54;;;;;;;40.67;4.15;;;;;;;;;;5145051;27;20453;-62
2022/01/22 00:07:20;;;;;;;36.25;4.35;;;;;;;;;;5144632;27;20158;-62
2022/01/22 00:09:51;;;;;;;25.42;2.60;;;;;;;;;;5145120;27;20043;-61
2022/01/22 00:15:04;;;;;;;25.98;2.67;;;;;;;;;;5122893;27;20039;-61
2022/01/22 00:17:30;;;;;;;21.95;3.17;;;;;;;;;;5152525;27;20038;-61
2022/01/22 00:19:56;;;;;;;12.00;1.98;;;;;;;;;;5152527;27;20569;-60
2022/01/22 00:22:26;;;;;;;17.15;2.92;;;;;;;;;;5143903;27;20057;-60
2022/01/22 00:24:59;;;;;;;34.45;2.85;;;;;;;;;;5146106;27;20043;-61
2022/01/22 00:27:25;;;;;;;17.83;2.47;;;;;;;;;;5145437;27;20050;-60
2022/01/22 00:29:51;;;;;;;26.77;2.65;;;;;;;;;;5145839;27;20041;-60
2022/01/22 00:32:18;;;;;;;17.30;2.08;;;;;;;;;;5145738;27;20295;-60
2022/01/22 00:34:44;;;;;;;26.58;2.72;;;;;;;;;;5145928;27;20035;-61
2022/01/22 00:37:10;;;;;;;19.50;2.78;;;;;;;;;;5145289;27;20076;-62
2022/01/22 00:39:37;;;;;;;34.60;3.25;;;;;;;;;;5143373;27;20039;-61
2022/01/22 00:42:08;;;;;;;26.67;3.35;;;;;;;;;;5145253;27;20047;-61
2022/01/22 00:44:34;;;;;;;36.03;3.53;;;;;;;;;;5145333;27;20043;-61
2022/01/22 00:47:02;;;;;;;19.80;2.47;;;;;;;;;;5145163;27;20047;-62
2022/01/22 00:49:29;;;;;;;18.80;2.90;;;;;;;;;;5145450;27;20130;-61
2022/01/22 00:51:55;;;;;;;14.30;2.33;;;;;;;;;;5145053;27;20119;-62
2022/01/22 00:54:21;;;;;;;21.75;2.60;;;;;;;;;;5145178;27;20047;-62
2022/01/22 00:56:47;;;;;;;11.90;2.42;;;;;;;;;;5145436;27;20043;-62
2022/01/22 00:59:13;;;;;;;19.67;2.47;;;;;;;;;;5145471;27;20143;-62
2022/01/22 01:01:39;;;;;;;20.20;2.38;;;;;;;;;;5145433;28;20091;-62
2022/01/22 01:04:08;;;;;;;26.90;2.30;;;;;;;;;;5126916;27;20334;-62
2022/01/22 01:06:34;;;;;;;18.08;1.80;;;;;;;;;;5124327;28;20101;-62
2022/01/22 01:09:03;;;;;;;17.95;2.55;;;;;;;;;;5124831;28;20039;-62
2022/01/22 01:11:30;;;;;;;20.80;2.38;;;;;;;;;;5124410;28;20051;-61
2022/01/22 01:14:00;;;;;;;21.92;2.70;;;;;;;;;;5125002;28;20119;-61
2022/01/22 01:32:59;;;;;;;15.10;1.60;;;;;;;;;;5149326;27;20092;-62
2022/01/22 01:35:30;;;;;;;21.75;2.75;;;;;;;;;;5148535;27;20068;-62
2022/01/22 01:37:58;;;;;;;18.75;2.08;;;;;;;;;;5149360;27;20046;-62
2022/01/22 01:40:26;;;;;;;14.32;2.15;;;;;;;;;;5164968;27;20044;-62
2022/01/22 01:45:57;;;;;;;15.07;1.73;;;;;;;;;;5085016;28;20203;-62
2022/01/22 01:48:28;;;;;;;9.45;1.70;;;;;;;;;;5084836;28;20044;-62
2022/01/22 01:50:56;;;;;;;17.27;1.80;;;;;;;;;;5084612;28;20065;-62
2022/01/22 01:58:24;;;;;;;7.22;1.88;;;;;;;;;;5084972;28;20044;-62
2022/01/22 02:00:51;;;;;;;15.77;2.35;;;;;;;;;;5084958;28;20071;-62
2022/01/22 02:03:17;;;;;;;19.85;1.88;;;;;;;;;;5084771;28;20063;-62
2022/01/22 02:05:44;;;;;;;25.00;3.00;;;;;;;;;;5084076;28;20496;-62
2022/01/22 02:08:12;;;;;;;16.88;2.13;;;;;;;;;;5084862;28;20044;-62
2022/01/22 02:10:44;;;;;;;14.60;2.28;;;;;;;;;;5084341;28;20063;-63
2022/01/22 02:24:14;;;;;;;16.63;2.35;;;;;;;;;;5128134;28;20084;-61
2022/01/22 02:26:46;;;;;;;27.27;4.72;;;;;;;;;;5127343;28;20048;-63
2022/01/22 02:29:12;;;;;;;15.00;2.92;;;;;;;;;;5130738;27;20050;-63
2022/01/22 02:31:42;;;;;;;15.57;2.85;;;;;;;;;;5147714;27;20118;-61
2022/01/22 02:37:03;;;;;;;21.20;2.58;;;;;;;;;;5147604;27;20082;-61
2022/01/22 02:39:44;;;;;;;16.48;3.17;;;;;;;;;;5146825;27;20051;-64
2022/01/22 02:42:11;;;;;;;17.17;3.45;;;;;;;;;;5148085;27;20062;-63
2022/01/22 02:44:45;;;;;;;22.38;2.78;;;;;;;;;;5147504;27;20043;-61
2022/01/22 02:47:14;;;;;;;21.17;1.70;;;;;;;;;;5147522;27;20103;-62
2022/01/22 02:49:40;;;;;;;14.95;2.30;;;;;;;;;;5147765;27;20039;-64
2022/01/22 02:52:08;;;;;;;16.08;1.80;;;;;;;;;;5147170;27;20061;-63
2022/01/22 02:54:35;;;;;;;13.73;3.10;;;;;;;;;;5147607;27;20047;-63
2022/01/22 02:57:01;;;;;;;12.02;2.72;;;;;;;;;;5147774;27;20047;-61
2022/01/22 02:59:28;;;;;;;17.55;3.08;;;;;;;;;;5147376;27;20043;-61
2022/01/22 03:01:54;;;;;;;17.45;2.90;;;;;;;;;;5147232;27;20099;-61
2022/01/22 03:04:20;;;;;;;7.85;2.17;;;;;;;;;;5147523;27;20047;-61
2022/01/22 03:06:48;;;;;;;11.60;1.80;;;;;;;;;;5146701;27;20107;-61
2022/01/22 03:09:16;;;;;;;13.07;1.85;;;;;;;;;;5147158;27;20070;-61
2022/01/22 03:12:14;;;;;;;;;;;;;;;;;;5147884;27;20078;-61
2022/01/22 03:15:27;;;;;;;7.97;1.65;;;;;;;;;;5147574;27;19958;-62
2022/01/22 03:17:50;;;;;;;12.18;1.40;;;;;;;;;;5147231;27;20051;-61
2022/01/22 03:23:05;;;;;;;6.78;1.23;;;;;;;;;;5147258;27;20053;-62
2022/01/22 03:28:18;;;;;;;15.65;1.50;;;;;;;;;;5147162;27;20419;-63
2022/01/22 03:30:45;;;;;;;10.20;1.80;;;;;;;;;;5146741;27;20514;-62
2022/01/22 03:33:13;;;;;;;12.95;1.90;;;;;;;;;;5146892;27;20114;-63
2022/01/22 03:35:44;;;;;;;8.18;1.40;;;;;;;;;;5146372;27;20542;-63
2022/01/22 03:38:10;;;;;;;12.18;2.50;;;;;;;;;;5147213;27;20039;-62
2022/01/22 03:40:36;;;;;;;8.73;1.77;;;;;;;;;;5146273;27;20055;-63
2022/01/22 03:43:03;;;;;;;9.95;1.23;;;;;;;;;;5146840;27;20088;-62
2022/01/22 03:45:29;;;;;;;6.75;1.27;;;;;;;;;;5146616;27;20072;-62
2022/01/22 03:47:55;;;;;;;8.93;1.38;;;;;;;;;;5146709;27;20127;-62
2022/01/22 03:50:22;;;;;;;10.82;1.50;;;;;;;;;;5145709;27;20151;-63
2022/01/22 03:52:48;;;;;;;10.52;2.15;;;;;;;;;;5146771;27;20464;-63
2022/01/22 03:55:28;;;;;;;8.18;1.67;;;;;;;;;;5146632;27;20039;-62
2022/01/22 03:57:55;;;;;;;9.32;1.80;;;;;;;;;;5146517;27;20099;-63
2022/01/22 04:00:21;;;;;;;4.10;1.27;;;;;;;;;;5162454;27;20606;-64
2022/01/22 04:03:24;;;;;;;13.75;3.13;;;;;;;;;;5144615;27;20055;-64
2022/01/22 04:05:45;;;;;;;12.20;2.20;;;;;;;;;;5145771;27;20051;-63
2022/01/22 04:08:16;;;;;;;16.88;2.47;;;;;;;;;;5146347;27;20413;-63
2022/01/22 04:10:43;;;;;;;19.40;2.35;;;;;;;;;;5146750;27;20047;-64
2022/01/22 04:13:15;;;;;;;11.63;2.08;;;;;;;;;;5145889;27;20062;-63
2022/01/22 04:15:41;;;;;;;13.05;2.38;;;;;;;;;;5146268;27;20046;-63
2022/01/22 04:26:41;;;;;;;14.70;2.35;;;;;;;;;;5125192;28;20083;-63
2022/01/22 04:29:07;;;;;;;13.80;1.50;;;;;;;;;;5125378;28;20039;-63
2022/01/22 04:31:33;;;;;;;12.00;2.00;;;;;;;;;;5129909;27;20046;-63
2022/01/22 04:33:59;;;;;;;17.85;2.53;;;;;;;;;;5145597;27;20075;-63
2022/01/22 04:36:25;;;;;;;11.13;1.60;;;;;;;;;;5145329;27;20047;-63
2022/01/22 04:38:52;;;;;;;12.98;1.88;;;;;;;;;;5145822;27;20165;-63
2022/01/22 04:41:19;;;;;;;10.40;1.17;;;;;;;;;;5145331;27;20078;-63
2022/01/22 04:43:46;;;;;;;;;;;;;;;;;;5146044;27;20055;-63
2022/01/22 04:56:38;;;;;;;11.65;1.73;;;;;;;;;;5124859;28;20048;-63
2022/01/22 04:59:04;;;;;;;17.08;1.45;;;;;;;;;;5123717;28;20071;-63
2022/01/22 05:01:31;;;;;;;7.15;1.30;;;;;;;;;;5126229;28;20448;-63
2022/01/22 05:03:57;;;;;;;8.55;2.40;;;;;;;;;;5144346;28;20065;-63
2022/01/22 05:06:26;;;;;;;11.63;1.88;;;;;;;;;;5144920;27;20494;-63
2022/01/22 05:08:52;;;;;;;16.27;2.35;;;;;;;;;;5145231;27;20047;-63
2022/01/22 05:11:18;;;;;;;15.02;1.60;;;;;;;;;;5145097;27;20082;-63
2022/01/22 05:13:44;;;;;;;6.32;2.00;;;;;;;;;;5145380;27;20421;-63
2022/01/22 05:16:11;;;;;;;8.48;1.80;;;;;;;;;;5145428;27;20049;-63
2022/01/22 05:18:44;;;;;;;12.60;1.60;;;;;;;;;;5145296;27;20031;-63
2022/01/22 05:21:11;;;;;;;6.00;1.38;;;;;;;;;;5144332;27;20043;-63
2022/01/22 05:23:39;;;;;;;16.35;2.63;;;;;;;;;;5145419;27;20035;-63
2022/01/22 05:26:12;;;;;;;;;;;;;;;;;;5145548;27;20086;-63
2022/01/22 05:31:31;;;;;;;18.45;2.42;;;;;;;;;;5144901;27;20522;-63
2022/01/22 05:39:39;;;;;;;9.50;1.85;;;;;;;;;;5081893;28;20048;-62
2022/01/22 05:42:09;;;;;;;15.98;1.90;;;;;;;;;;5081083;28;20056;-62
2022/01/22 05:44:35;;;;;;;13.38;2.75;;;;;;;;;;5081379;28;20040;-63
2022/01/22 05:47:05;;;;;;;6.97;1.55;;;;;;;;;;5081136;28;20052;-63
2022/01/22 05:49:34;;;;;;;11.23;1.65;;;;;;;;;;5064698;28;20061;-62
2022/01/22 05:52:03;;;;;;;16.20;2.17;;;;;;;;;;5080395;28;20048;-62
2022/01/22 05:59:42;;;;;;;25.65;2.13;;;;;;;;;;5081165;28;20071;-62
2022/01/22 06:02:09;;;;;;;10.38;1.90;;;;;;;;;;5080652;28;20041;-63
2022/01/22 06:04:36;;;;;;;14.63;1.57;;;;;;;;;;5081545;28;20044;-62
2022/01/22 06:07:03;;;;;;;10.57;2.17;;;;;;;;;;5080717;28;20535;-62
2022/01/22 06:09:31;;;;;;;19.60;1.90;;;;;;;;;;5081187;28;20134;-62
2022/01/22 06:12:04;;;;;;;7.50;1.92;;;;;;;;;;5080919;28;20045;-62
2022/01/22 06:14:30;;;;;;;19.40;2.40;;;;;;;;;;5121746;28;20059;-62
2022/01/22 06:16:56;;;;;;;10.05;2.65;;;;;;;;;;5127838;28;20071;-62
2022/01/22 06:19:23;;;;;;;17.95;2.00;;;;;;;;;;5143528;27;20036;-63
2022/01/22 06:21:51;;;;;;;21.92;2.20;;;;;;;;;;5143800;27;20068;-63
2022/01/22 06:24:18;;;;;;;14.55;1.73;;;;;;;;;;5148407;27;20058;-63
2022/01/22 06:26:44;;;;;;;19.40;2.72;;;;;;;;;;5146704;27;20043;-63
2022/01/22 06:29:10;;;;;;;18.20;2.05;;;;;;;;;;5148098;27;20438;-64
2022/01/22 06:31:36;;;;;;;9.32;1.70;;;;;;;;;;5148136;27;20118;-64
2022/01/22 06:34:02;;;;;;;17.88;2.00;;;;;;;;;;5148111;27;20043;-64
2022/01/22 06:36:29;;;;;;;10.70;2.78;;;;;;;;;;5129232;27;20062;-64
2022/01/22 06:39:10;;;;;;;11.93;1.60;;;;;;;;;;5147886;27;20039;-64
2022/01/22 06:41:45;;;;;;;6.80;1.60;;;;;;;;;;5148124;27;20035;-64
2022/01/22 06:44:19;;;;;;;11.82;2.50;;;;;;;;;;5148451;27;20058;-64
2022/01/22 06:46:46;;;;;;;15.32;2.10;;;;;;;;;;5147881;27;20050;-64
2022/01/22 06:49:12;;;;;;;11.77;1.85;;;;;;;;;;5147185;27;20043;-64
2022/01/22 06:51:39;;;;;;;13.88;2.50;;;;;;;;;;5147253;27;20043;-64
2022/01/22 06:54:06;;;;;;;11.65;2.50;;;;;;;;;;5147717;27;20051;-64
2022/01/22 06:56:32;;;;;;;9.20;2.63;;;;;;;;;;5147818;27;20047;-64
2022/01/22 06:58:59;;;;;;;6.80;2.00;;;;;;;;;;5147635;27;20039;-64
2022/01/22 07:01:26;;;;;;;14.68;2.08;;;;;;;;;;5147337;27;20098;-64
2022/01/22 07:03:52;;;;;;;13.57;2.15;;;;;;;;;;5147421;27;20050;-64
2022/01/22 07:06:18;;;;;;;5.22;1.90;;;;;;;;;;5147131;27;20042;-64
2022/01/22 07:08:44;;;;;;;7.88;2.28;;;;;;;;;;5147263;27;20064;-64
2022/01/22 07:11:11;;;;;;;12.88;2.25;;;;;;;;;;5164014;27;20051;-64
2022/01/22 07:13:37;;;;;;;11.27;2.15;;;;;;;;;;5147219;27;20486;-64
2022/01/22 07:16:04;;;;;;;8.65;1.90;;;;;;;;;;5147254;27;20051;-64
2022/01/22 07:18:30;;;;;;;9.05;2.00;;;;;;;;;;5147103;27;20050;-64
2022/01/22 07:20:57;;;;;;;7.40;1.95;;;;;;;;;;5146661;27;20062;-64
2022/01/22 07:26:02;;;;;;;9.02;1.88;;;;;;;;;;5147479;27;20047;-64
2022/01/22 07:28:28;;;;;;;12.18;2.25;;;;;;;;;;5147091;27;20039;-64
2022/01/22 07:30:54;;;;;;;20.92;2.67;;;;;;;;;;5146596;27;20043;-63
2022/01/22 07:33:20;;;;;;;20.58;2.92;;;;;;;;;;5146434;27;20031;-63
2022/01/22 07:35:47;;;;;;;12.80;2.53;;;;;;;;;;5146319;27;20039;-63
2022/01/22 07:38:13;;;;;;;14.95;3.67;;;;;;;;;;5146987;27;20063;-63
2022/01/22 07:40:40;;;;;;;25.20;2.72;;;;;;;;;;5146338;27;20043;-63
2022/01/22 07:43:06;;;;;;;20.10;2.90;;;;;;;;;;5146879;27;20047;-63
2022/01/22 07:45:32;;;;;;;10.82;2.25;;;;;;;;;;5145232;27;20082;-63
2022/01/22 07:47:58;;;;;;;11.35;1.83;;;;;;;;;;5146525;27;20102;-63
2022/01/22 07:50:24;;;;;;;9.40;1.60;;;;;;;;;;5145872;27;20121;-64
2022/01/22 07:52:50;;;;;;;15.65;1.98;;;;;;;;;;5146625;27;20125;-64
2022/01/22 07:55:19;;;;;;;15.68;1.90;;;;;;;;;;5146665;27;20115;-64
2022/01/22 07:57:45;;;;;;;16.48;2.00;;;;;;;;;;5146349;27;20054;-63
2022/01/22 08:00:12;;;;;;;13.38;1.88;;;;;;;;;;5146062;27;20051;-64
2022/01/22 08:02:38;;;;;;;5.47;1.10;;;;;;;;;;5146124;27;20231;-64
2022/01/22 08:05:05;;;;;;;7.03;1.23;;;;;;;;;;5146089;27;20051;-64
2022/01/22 08:07:31;;;;;;;5.85;1.13;;;;;;;;;;5146562;27;20076;-64
2022/01/22 08:09:58;;;;;;;7.70;1.15;;;;;;;;;;5146293;27;20068;-64
2022/01/22 08:12:24;;;;;;;7.25;1.75;;;;;;;;;;5146116;27;20192;-64
2022/01/22 08:14:50;;;;;;;10.48;1.77;;;;;;;;;;5146050;27;20127;-64
2022/01/22 08:17:17;;;;;;;9.77;1.35;;;;;;;;;;5147397;27;20039;-64
2022/01/22 08:19:43;;;;;;;9.35;1.70;;;;;;;;;;5147925;27;20043;-64
2022/01/22 08:22:09;;;;;;;16.23;1.83;;;;;;;;;;5160445;27;20042;-65
2022/01/22 08:24:35;;;;;;;6.20;1.20;;;;;;;;;;5147112;27;20135;-64
2022/01/22 08:27:32;;;;;;;11.68;1.60;;;;;;;;;;5135383;27;20069;-64
2022/01/22 08:29:58;;;;;;;10.95;1.88;;;;;;;;;;5127135;27;20118;-64
2022/01/22 08:32:55;;;;;;;10.15;1.75;;;;;;;;;;5151735;27;20046;-64
2022/01/22 08:38:01;;;;;;;9.30;1.10;;;;;;;;;;5145380;27;20069;-64
2022/01/22 08:40:27;;;;;;;14.57;1.80;;;;;;;;;;5141511;27;20096;-64
2022/01/22 08:42:53;;;;;;;16.70;1.90;;;;;;;;;;5141273;27;20122;-64
2022/01/22 08:45:19;;;;;;;17.17;2.42;;;;;;;;;;5144758;27;20043;-63
2022/01/22 08:47:46;;;;;;;11.57;1.75;;;;;;;;;;5145448;27;20085;-63
2022/01/22 08:50:12;;;;;;;6.53;1.42;;;;;;;;;;5143682;27;20536;-63
2022/01/22 08:52:38;;;;;;;7.63;2.20;;;;;;;;;;5134718;27;20035;-63
2022/01/22 08:55:04;;;;;;;7.15;1.10;;;;;;;;;;5127083;27;20055;-65
2022/01/22 08:57:31;;;;;;;4.93;0.90;;;;;;;;;;5148647;27;20094;-64
2022/01/22 08:59:57;;;;;;;4.47;1.20;;;;;;;;;;5146199;27;20121;-65
2022/01/22 09:02:23;;;;;;;10.43;1.50;;;;;;;;;;5144456;27;20095;-64
2022/01/22 09:04:49;;;;;;;6.70;1.00;;;;;;;;;;5145350;27;20058;-63
2022/01/22 09:07:15;;;;;;;9.45;1.08;;;;;;;;;;5143525;27;20119;-63
2022/01/22 09:09:42;;;;;;;5.95;1.23;;;;;;;;;;5145501;28;20388;-64
2022/01/22 09:12:09;;;;;;;13.57;2.05;;;;;;;;;;5149580;27;20131;-64
2022/01/22 09:14:36;;;;;;;6.03;1.02;;;;;;;;;;5157083;27;20095;-64
2022/01/22 09:17:03;;;;;;;6.55;1.10;;;;;;;;;;5144435;27;20107;-64
2022/01/22 09:19:34;;;;;;;6.30;1.47;;;;;;;;;;5126002;28;20074;-63
2022/01/22 09:22:01;;;;;;;7.68;1.42;;;;;;;;;;5145315;27;20050;-63
2022/01/22 09:24:27;;;;;;;15.75;1.35;;;;;;;;;;5144327;28;20122;-65
2022/01/22 09:26:55;;;;;;;10.02;1.80;;;;;;;;;;5149886;27;20068;-64
2022/01/22 09:29:23;;;;;;;7.65;1.17;;;;;;;;;;5155581;27;20544;-64
2022/01/22 09:31:49;;;;;;;9.45;1.20;;;;;;;;;;5147186;27;20122;-64
2022/01/22 09:34:15;;;;;;;8.52;1.63;;;;;;;;;;5143797;27;20095;-64
2022/01/22 09:36:42;;;;;;;11.55;1.55;;;;;;;;;;5159522;27;20039;-63
2022/01/22 09:39:08;;;;;;;9.70;1.83;;;;;;;;;;5149916;27;20147;-64
2022/01/22 09:41:34;;;;;;;7.35;1.52;;;;;;;;;;5145609;27;20122;-63
2022/01/22 09:44:00;;;;;;;16.45;2.20;;;;;;;;;;5146984;27;20054;-63
2022/01/22 09:46:27;;;;;;;11.55;1.77;;;;;;;;;;5144588;27;20068;-63
2022/01/22 09:48:54;;;;;;;9.77;1.60;;;;;;;;;;5161885;27;20047;-66
2022/01/22 09:51:20;;;;;;;11.95;2.25;;;;;;;;;;5157109;27;20054;-63
2022/01/22 09:53:46;;;;;;;13.27;2.05;;;;;;;;;;5148861;27;20080;-64
2022/01/22 09:56:13;;;;;;;9.38;2.10;;;;;;;;;;5158215;27;20051;-65
2022/01/22 09:58:39;;;;;;;11.52;1.67;;;;;;;;;;5147695;27;20065;-64
2022/01/22 10:01:22;;;;;;;10.38;1.50;;;;;;;;;;5146778;27;20047;-64
2022/01/22 10:03:48;;;;;;;8.02;1.50;;;;;;;;;;5147796;27;20080;-64
2022/01/22 10:06:18;;;;;;;14.60;1.92;;;;;;;;;;5146881;27;20043;-64
2022/01/22 10:08:44;;;;;;;4.40;1.50;;;;;;;;;;5156375;27;20117;-67
2022/01/22 10:11:17;;;;;;;9.85;1.48;;;;;;;;;;5153936;27;20384;-67
2022/01/22 10:13:47;;;;;;;9.93;1.92;;;;;;;;;;5148646;27;20050;-68
2022/01/22 10:16:43;;;;;;;10.48;1.15;;;;;;;;;;5153733;27;20071;-68
2022/01/22 10:19:09;;;;;;;9.30;1.60;;;;;;;;;;5138535;27;20086;-68
2022/01/22 10:21:36;;;;;;;9.32;2.53;;;;;;;;;;5147994;27;20036;-68
2022/01/22 10:24:21;;;;;;;11.35;1.55;;;;;;;;;;5148368;27;20054;-68
2022/01/22 10:26:47;;;;;;;9.63;1.52;;;;;;;;;;5146422;27;20080;-69
2022/01/22 10:29:13;;;;;;;11.25;1.63;;;;;;;;;;5148521;27;20039;-69
2022/01/22 10:31:43;;;;;;;10.93;1.65;;;;;;;;;;5143149;27;20133;-69
2022/01/22 10:34:11;;;;;;;5.72;1.70;;;;;;;;;;5147735;27;20039;-69
2022/01/22 10:36:38;;;;;;;12.18;1.73;;;;;;;;;;5130820;27;20043;-69
2022/01/22 10:39:09;;;;;;;11.73;1.85;;;;;;;;;;5136073;27;20039;-69
2022/01/22 10:41:40;;;;;;;10.07;1.80;;;;;;;;;;5140230;27;20511;-69
2022/01/22 10:44:09;;;;;;;10.43;1.70;;;;;;;;;;5135611;27;20036;-71
2022/01/22 10:49:28;;;;;;;8.40;1.60;;;;;;;;;;5141032;27;20047;-70
2022/01/22 10:51:55;;;;;;;8.57;2.35;;;;;;;;;;5135480;27;20209;-64
2022/01/22 10:54:22;;;;;;;16.70;1.88;;;;;;;;;;5135617;27;20043;-66
2022/01/22 10:56:49;;;;;;;10.15;2.25;;;;;;;;;;5148498;27;20045;-71
2022/01/22 10:59:17;;;;;;;12.35;2.20;;;;;;;;;;5155472;27;20138;-69
2022/01/22 11:01:55;;;;;;;12.82;1.58;;;;;;;;;;5151182;27;20027;-69
2022/01/22 11:04:23;;;;;;;11.90;2.33;;;;;;;;;;5161330;27;20043;-64
2022/01/22 11:06:57;;;;;;;12.38;1.48;;;;;;;;;;5146026;27;20072;-64
2022/01/22 11:09:24;;;;;;;12.13;2.00;;;;;;;;;;5151935;27;20085;-70
2022/01/22 11:11:51;;;;;;;16.05;2.03;;;;;;;;;;5145695;27;20046;-74
2022/01/22 11:14:18;;;;;;;13.05;2.22;;;;;;;;;;5146600;27;20070;-74
2022/01/22 11:16:45;;;;;;;9.73;2.65;;;;;;;;;;5146725;27;20122;-74
2022/01/22 11:19:15;;;;;;;6.03;1.90;;;;;;;;;;5146344;27;20035;-74
2022/01/22 11:21:44;;;;;;;11.93;2.22;;;;;;;;;;5146767;27;20565;-75
2022/01/22 11:24:16;;;;;;;11.45;2.63;;;;;;;;;;5155782;27;20042;-75
2022/01/22 11:26:44;;;;;;;7.10;2.33;;;;;;;;;;5148143;27;20083;-75
2022/01/22 11:29:11;;;;;;;17.63;2.72;;;;;;;;;;5135034;27;20063;-75
2022/01/22 11:31:38;;;;;;;8.73;2.50;;;;;;;;;;5147822;27;20051;-75
2022/01/22 11:34:05;;;;;;;11.43;3.47;;;;;;;;;;5145855;27;20046;-75
2022/01/22 11:36:36;;;;;;;15.45;2.42;;;;;;;;;;5145873;27;20046;-75
2022/01/22 11:39:03;;;;;;;22.10;4.05;;;;;;;;;;5146473;27;20037;-75
2022/01/22 11:41:30;;;;;;;19.33;3.35;;;;;;;;;;5145666;27;20047;-75
2022/01/22 11:44:06;;;;;;;17.20;3.88;;;;;;;;;;5143083;27;20050;-75
2022/01/22 11:46:36;;;;;;;18.17;4.60;;;;;;;;;;5143014;27;20054;-74
2022/01/22 11:52:15;;;;;;;14.77;3.20;;;;;;;;;;5141536;27;20077;-74
2022/01/22 11:55:01;;;;;;;16.55;3.05;;;;;;;;;;5145119;27;20055;-74
2022/01/22 11:57:31;;;;;;;15.40;3.53;;;;;;;;;;5141957;27;20039;-74
2022/01/22 12:00:16;;;;;;;14.55;3.45;;;;;;;;;;5142598;27;20043;-74
2022/01/22 12:02:42;;;;;;;8.77;3.28;;;;;;;;;;5137775;27;20043;-74
2022/01/22 12:05:08;;;;;;;11.88;3.03;;;;;;;;;;5142123;27;20047;-70
2022/01/22 12:07:38;;;;;;;14.52;4.18;;;;;;;;;;5142862;27;20581;-74
2022/01/22 12:10:35;;;;;;;19.50;3.63;;;;;;;;;;5143763;27;20096;-74
2022/01/22 12:16:05;;;;;;;14.13;3.60;;;;;;;;;;5141600;27;20054;-73
2022/01/22 12:18:33;;;;;;;15.57;4.03;;;;;;;;;;5144356;27;20054;-74
2022/01/22 12:23:32;;;;;;;23.88;4.63;;;;;;;;;;5144499;27;20194;-73
2022/01/22 12:25:59;;;;;;;26.60;4.72;;;;;;;;;;5145345;27;20082;-73
2022/01/22 12:28:36;;;;;;;23.13;5.57;;;;;;;;;;5145422;27;20593;-72
2022/01/22 12:31:07;;;;;;;25.98;4.70;;;;;;;;;;5141078;27;20067;-73
2022/01/22 12:33:33;;;;;;;20.45;4.88;;;;;;;;;;5138299;27;20043;-73
2022/01/22 12:36:01;;;;;;;19.80;5.28;;;;;;;;;;5138088;27;20039;-73
2022/01/22 12:38:36;;;;;;;21.02;5.25;;;;;;;;;;5142814;27;20055;-73
2022/01/22 12:41:29;;;;;;;13.05;6.28;;;;;;;;;;5141031;27;20051;-73
2022/01/22 12:44:36;;;;;;;23.77;6.68;;;;;;;;;;5137725;27;20043;-73
2022/01/22 12:47:07;;;;;;;20.40;5.63;;;;;;;;;;5141878;27;20050;-73
2022/01/22 12:49:34;;;;;;;18.90;5.93;;;;;;;;;;5133065;27;20047;-73
2022/01/22 12:52:03;;;;;;;21.50;6.53;;;;;;;;;;5138209;27;20094;-74
2022/01/22 12:54:45;;;;;;;22.30;6.32;;;;;;;;;;5138085;27;20074;-70
2022/01/22 12:57:12;;;;;;;34.13;6.68;;;;;;;;;;5142315;27;20075;-71
2022/01/22 12:59:52;;;;;;;21.55;5.07;;;;;;;;;;5143119;27;20098;-71
2022/01/22 13:02:18;;;;;;;23.85;5.07;;;;;;;;;;5144242;27;20451;-71
2022/01/22 13:04:58;;;;;;;19.20;4.45;;;;;;;;;;5143262;27;20102;-71
2022/01/22 13:07:25;;;;;;;10.43;3.47;;;;;;;;;;5144431;28;20259;-71
2022/01/22 13:09:55;;;;;;;17.63;4.25;;;;;;;;;;5135632;27;20556;-73
2022/01/22 13:12:23;;;;;;;19.75;4.07;;;;;;;;;;5134729;28;20097;-72
2022/01/22 13:14:55;;;;;;;10.75;3.40;;;;;;;;;;5142618;28;20031;-72
2022/01/22 13:17:28;;;;;;;14.88;4.55;;;;;;;;;;5138666;27;20043;-72
2022/01/22 13:19:54;;;;;;;21.10;3.72;;;;;;;;;;5138506;28;20043;-72
2022/01/22 13:22:20;;;;;;;12.25;3.30;;;;;;;;;;5144711;27;20043;-72
2022/01/22 13:24:47;;;;;;;11.90;3.08;;;;;;;;;;5138067;27;20043;-72
2022/01/22 13:27:17;;;;;;;18.50;3.10;;;;;;;;;;5146964;27;20528;-71
2022/01/22 13:29:52;;;;;;;16.98;4.13;;;;;;;;;;5144317;27;20035;-72
2022/01/22 13:35:25;;;;;;;15.15;3.33;;;;;;;;;;5141633;27;20078;-71
2022/01/22 13:38:35;;;;;;;19.00;3.85;;;;;;;;;;5135439;27;20083;-72
2022/01/22 13:45:06;;;;;;;12.77;3.05;;;;;;;;;;5148455;27;20113;-71
2022/01/22 13:49:26;;;;;;;9.07;2.28;;;;;;;;;;5145013;27;20039;-72
2022/01/22 13:51:56;;;;;;;13.38;2.95;;;;;;;;;;5142764;27;20047;-71
2022/01/22 13:54:36;;;;;;;15.77;2.88;;;;;;;;;;5148312;27;20038;-71
2022/01/22 13:57:25;;;;;;;12.48;2.72;;;;;;;;;;5150042;27;20687;-72
2022/01/22 13:59:53;;;;;;;16.52;3.20;;;;;;;;;;5137277;27;20516;-72
2022/01/22 14:04:51;;;;;;;13.07;3.58;;;;;;;;;;5150972;27;20122;-71
2022/01/22 14:07:31;;;;;;;16.85;3.28;;;;;;;;;;5138564;27;20121;-71
2022/01/22 14:09:58;;;;;;;11.15;3.60;;;;;;;;;;5147340;27;20047;-71
2022/01/22 14:12:26;;;;;;;9.45;2.20;;;;;;;;;;5147742;27;20084;-71
2022/01/22 14:15:07;;;;;;;13.70;2.45;;;;;;;;;;5148001;27;20124;-71
2022/01/22 14:17:39;;;;;;;9.05;2.10;;;;;;;;;;5151722;27;20051;-70
2022/01/22 14:20:07;;;;;;;18.90;3.15;;;;;;;;;;5144576;27;20049;-71
2022/01/22 14:22:51;;;;;;;17.23;2.40;;;;;;;;;;5146189;27;20047;-71
2022/01/22 14:25:18;;;;;;;11.40;1.88;;;;;;;;;;5146502;27;20039;-71
2022/01/22 14:27:54;;;;;;;9.23;2.05;;;;;;;;;;5150005;27;20064;-71
2022/01/22 14:30:32;;;;;;;18.67;3.28;;;;;;;;;;5148657;27;20063;-71
2022/01/22 14:32:58;;;;;;;10.98;2.53;;;;;;;;;;5145692;27;20058;-71
2022/01/22 14:35:25;;;;;;;8.52;2.00;;;;;;;;;;5149042;27;20043;-71
2022/01/22 14:37:54;;;;;;;14.60;2.75;;;;;;;;;;5149242;27;20402;-69
2022/01/22 14:46:03;;;;;;;18.15;3.03;;;;;;;;;;5106358;28;20059;-71
2022/01/22 14:48:29;;;;;;;15.25;2.38;;;;;;;;;;5107240;28;20079;-71
2022/01/22 14:50:55;;;;;;;11.55;2.25;;;;;;;;;;5104046;28;20044;-71
2022/01/22 14:53:22;;;;;;;15.25;2.70;;;;;;;;;;5104355;28;20509;-70
2022/01/22 14:55:49;;;;;;;14.88;2.22;;;;;;;;;;5088679;28;20086;-70
2022/01/22 14:58:16;;;;;;;15.70;2.70;;;;;;;;;;5106003;28;20044;-70
2022/01/22 15:00:42;;;;;;;13.43;2.50;;;;;;;;;;5090803;28;20086;-71
2022/01/22 15:03:08;;;;;;;13.32;2.17;;;;;;;;;;5106517;28;20047;-71
2022/01/22 15:05:34;;;;;;;7.93;1.83;;;;;;;;;;5104775;28;20507;-70
2022/01/22 15:08:00;;;;;;;10.93;2.30;;;;;;;;;;5101301;28;20035;-71
2022/01/22 15:10:26;;;;;;;6.43;1.92;;;;;;;;;;5101504;28;20095;-70
2022/01/22 15:12:53;;;;;;;7.45;1.60;;;;;;;;;;5104267;28;20078;-70
2022/01/22 15:15:21;;;;;;;12.32;1.65;;;;;;;;;;5102120;28;20625;-70
2022/01/22 15:20:17;;;;;;;10.07;2.28;;;;;;;;;;5146453;27;20076;-67
2022/01/22 15:22:44;;;;;;;7.18;2.17;;;;;;;;;;5143778;27;20050;-70
2022/01/22 15:25:10;;;;;;;17.38;1.80;;;;;;;;;;5148286;27;20046;-71
2022/01/22 15:27:36;;;;;;;11.07;2.30;;;;;;;;;;5141336;27;20055;-73
2022/01/22 15:30:11;;;;;;;5.78;1.73;;;;;;;;;;5140743;27;20131;-68
2022/01/22 15:35:16;;;;;;;;;;;;;;;;;;5138275;27;20050;-68
2022/01/22 15:37:50;;;;;;;14.40;1.90;;;;;;;;;;5140536;27;19963;-69
2022/01/22 15:40:16;;;;;;;11.50;1.90;;;;;;;;;;5145289;27;20658;-68
2022/01/22 15:42:42;;;;;;;15.35;2.13;;;;;;;;;;5139467;27;20062;-69
2022/01/22 15:45:09;;;;;;;4.70;1.48;;;;;;;;;;5139475;27;20134;-69
2022/01/22 15:47:35;;;;;;;10.20;1.90;;;;;;;;;;5145978;27;20074;-69
2022/01/22 15:50:01;;;;;;;10.90;1.60;;;;;;;;;;5141166;27;20047;-67
2022/01/22 15:52:30;;;;;;;8.82;2.22;;;;;;;;;;5145015;27;20060;-69
2022/01/22 15:54:56;;;;;;;6.53;2.15;;;;;;;;;;5142110;27;20063;-70
2022/01/22 15:57:22;;;;;;;13.82;1.88;;;;;;;;;;5146576;27;20039;-69
2022/01/22 15:59:49;;;;;;;10.85;1.95;;;;;;;;;;5141591;27;20475;-70
2022/01/22 16:02:16;;;;;;;6.45;1.80;;;;;;;;;;5147920;27;20067;-70
2022/01/22 16:04:48;;;;;;;5.43;2.00;;;;;;;;;;5148750;27;20069;-70
2022/01/22 16:07:20;;;;;;;3.78;1.55;;;;;;;;;;5133371;27;20047;-70
2022/01/22 16:09:46;;;;;;;7.47;2.00;;;;;;;;;;5143373;27;20054;-70
2022/01/22 16:12:13;;;;;;;11.05;2.13;;;;;;;;;;5144482;27;20069;-70
2022/01/22 16:14:39;;;;;;;14.00;1.60;;;;;;;;;;5145820;27;20097;-70
2022/01/22 16:17:05;;;;;;;12.60;2.13;;;;;;;;;;5145319;27;20057;-69
2022/01/22 16:19:38;;;;;;;8.75;1.73;;;;;;;;;;5151223;27;20101;-70
2022/01/22 16:22:05;;;;;;;9.77;2.60;;;;;;;;;;5151363;27;20054;-70
2022/01/22 16:24:31;;;;;;;8.35;2.10;;;;;;;;;;5145251;27;20507;-71
2022/01/22 16:26:57;;;;;;;9.00;2.35;;;;;;;;;;5145885;27;20126;-76
2022/01/22 16:29:26;;;;;;;12.13;2.15;;;;;;;;;;5143085;27;20487;-70
2022/01/22 16:31:53;;;;;;;15.00;2.40;;;;;;;;;;5132318;27;20047;-70
2022/01/22 16:34:19;;;;;;;14.52;2.47;;;;;;;;;;5150712;27;20050;-73
2022/01/22 16:36:45;;;;;;;14.27;3.60;;;;;;;;;;5144917;27;20099;-74
2022/01/22 16:39:12;;;;;;;6.57;2.20;;;;;;;;;;5147510;27;20054;-76
2022/01/22 16:41:38;;;;;;;14.10;2.67;;;;;;;;;;5141381;27;20102;-73
2022/01/22 16:44:32;;;;;;;12.45;3.17;;;;;;;;;;5144692;27;20053;-72